Terminal Aerodrome Forecast
Issued by NWS

Home | Current Version | Previous Version | Text Only | Print | Product List | Glossary On
Versions: 1 2 3 4 5 6 7 8 9 10 11 12 13 14 15 16 17 18 19
627
FTAK31 PAJN 250535
TAFASI
TAF
PASI 250535Z 2506/2606 16006KT P6SM SCT012 OVC025
      TEMPO 2506/2510 3SM -RA BR BKN012 OVC025
     FM251100 12004KT 4SM BR BKN012 OVC020
     FM251800 15006KT P6SM SCT012 OVC025=

USA.gov is the U.S. government's official web portal to all federal, state and local government web resources and services.